Crown Of Scandinavia — OXRA6 — position and weather

sailwx.info

Track history (hours):
 
Tides and Currents Weather Stations Pressure Air Temp Water Temp Dewpoint Dewpoint Depression Visibility Wind Speed Wind Dir Waves Ship Positions

Crown Of Scandinavia

Last reported at 2017-Apr-24 10:59 UTC. Time now 2017-Apr-24 11:18 UTC.
Position N 55°42' E 012°36'.

Length 171 m; draft 6.3 m.

Type: Ship. MMSI: 219592000.

Date/timePositionNaut miles runAvg speedWind from/ knotsBaromVisibWave heightAir tempDewpointWater temp
2017-Apr-24 10:59N 55°42' E 012°36'0 0.0
2017-Apr-24 10:29N 55°42' E 012°36'0 0.0
2017-Apr-24 09:59N 55°42' E 012°36'0 0.0
2017-Apr-24 09:29N 55°42' E 012°36'0 0.0
2017-Apr-24 08:59N 55°42' E 012°36'0 0.0
2017-Apr-24 08:29N 55°42' E 012°36'0 0.0
2017-Apr-24 07:59N 55°42' E 012°36'0 0.8
2017-Apr-24 07:31N 55°42' E 012°36'713.9
2017-Apr-24 07:00N 55°49' E 012°42'815.1
2017-Apr-24 06:30N 55°56' E 012°39'815.2
2017-Apr-24 06:00N 56°03' E 012°38'714.8
2017-Apr-24 05:30N 56°09' E 012°29'815.0
2017-Apr-24 05:00N 56°16' E 012°25'5915.3
2017-Apr-24 01:07N 57°13' E 011°53'216.4
2017-Apr-24 00:58N 57°15' E 011°51'816.2
2017-Apr-24 00:30N 57°21' E 011°43'816.4
2017-Apr-24 00:00N 57°29' E 011°36'816.7
2017-Apr-23 23:30N 57°36' E 011°30'816.4
2017-Apr-23 23:00N 57°44' E 011°26'916.5
2017-Apr-23 22:26N 57°53' E 011°19'716.4
2017-Apr-23 21:59N 57°60' E 011°14'815.9
2017-Apr-23 21:30N 58°07' E 011°09'815.8
2017-Apr-23 21:00N 58°14' E 011°04'816.1
2017-Apr-23 20:30N 58°22' E 010°59'816.4
2017-Apr-23 20:00N 58°30' E 010°54'816.3
2017-Apr-23 19:30N 58°38' E 010°50'816.4
2017-Apr-23 19:00N 58°46' E 010°48'816.7
2017-Apr-23 18:30N 58°54' E 010°44'816.9
2017-Apr-23 18:00N 59°02' E 010°41'816.7
2017-Apr-23 17:30N 59°10' E 010°38'816.6
2017-Apr-23 17:00N 59°19' E 010°35'816.6
2017-Apr-23 16:30N 59°27' E 010°33'816.0
2017-Apr-23 16:00N 59°34' E 010°38'714.0
2017-Apr-23 15:30N 59°41' E 010°36'815.8
2017-Apr-23 15:00N 59°49' E 010°34'7 7.1
2017-Apr-23 13:59N 59°54' E 010°45'0 0.0
2017-Apr-23 13:29N 59°54' E 010°45'0 0.0
2017-Apr-23 12:59N 59°54' E 010°45'0 0.0
2017-Apr-23 12:29N 59°54' E 010°45'0 0.0
2017-Apr-23 11:59N 59°54' E 010°45'0 0.0
2017-Apr-23 11:29N 59°54' E 010°45'0 0.0
2017-Apr-23 10:59N 59°54' E 010°45'0 0.0
2017-Apr-23 10:29N 59°54' E 010°45'0 0.0
2017-Apr-23 09:59N 59°54' E 010°45'0 0.0
2017-Apr-23 09:29N 59°54' E 010°45'0 0.0
2017-Apr-23 08:59N 59°54' E 010°45'0 0.0
2017-Apr-23 08:29N 59°54' E 010°45'0 0.0
2017-Apr-23 07:59N 59°54' E 010°45'0 0.3
2017-Apr-23 07:30N 59°54' E 010°45'611.7
2017-Apr-23 07:00N 59°50' E 010°36'714.7
2017-Apr-23 06:30N 59°43' E 010°35'713.9
2017-Apr-23 06:01N 59°36' E 010°38'816.2
2017-Apr-23 05:31N 59°28' E 010°35'815.7
2017-Apr-23 05:01N 59°20' E 010°36'815.5
2017-Apr-23 04:31N 59°13' E 010°38'815.7
2017-Apr-23 04:01N 59°05' E 010°39'816.2
2017-Apr-23 03:31N 58°57' E 010°38'816.5
2017-Apr-23 03:01N 58°49' E 010°39'816.9
2017-Apr-23 02:31N 58°40' E 010°40'917.5
2017-Apr-23 02:01N 58°31' E 010°41'917.7
2017-Apr-23 01:30N 58°23' E 010°43'917.7
2017-Apr-23 01:00N 58°14' E 010°49'917.4
2017-Apr-23 00:31N 58°06' E 010°55'917.4
2017-Apr-23 00:00N 57°58' E 011°00'816.9
2017-Apr-22 23:30N 57°50' E 011°06'816.8
2017-Apr-22 23:00N 57°42' E 011°11'816.6
2017-Apr-22 22:30N 57°35' E 011°19'816.8
2017-Apr-22 22:00N 57°28' E 011°27'916.9
2017-Apr-22 21:30N 57°20' E 011°34'817.1
2017-Apr-22 21:01N 57°12' E 011°38'1017.5
2017-Apr-22 20:25N 57°02' E 011°44'1117.8
2017-Apr-22 19:50N 56°52' E 011°49'3916.5
2017-Apr-22 17:27N 56°16' E 012°18'715.8
2017-Apr-22 17:01N 56°11' E 012°26'815.6
2017-Apr-22 16:31N 56°05' E 012°36'713.8
2017-Apr-22 16:01N 55°59' E 012°42'714.7
2017-Apr-22 15:31N 55°52' E 012°45'713.9
2017-Apr-22 15:00N 55°45' E 012°41'4 8.4
2017-Apr-22 14:30N 55°42' E 012°36'0 0.0
2017-Apr-22 13:30N 55°42' E 012°36'0 0.0
2017-Apr-22 13:00N 55°42' E 012°36'0 0.0
2017-Apr-22 12:30N 55°42' E 012°36'0 0.0
2017-Apr-22 12:00N 55°42' E 012°36'0 0.0
2017-Apr-22 11:30N 55°42' E 012°36'0 0.0
2017-Apr-22 11:00N 55°42' E 012°36'0 0.0
2017-Apr-22 10:30N 55°42' E 012°36'0 0.0
2017-Apr-22 10:00N 55°42' E 012°36'0 0.0
2017-Apr-22 09:30N 55°42' E 012°36'0 0.0
2017-Apr-22 09:00N 55°42' E 012°36'0 0.0
2017-Apr-22 08:30N 55°42' E 012°36'0 0.0
2017-Apr-22 08:00N 55°42' E 012°36'0 0.7
2017-Apr-22 07:31N 55°42' E 012°36'611.5
2017-Apr-22 07:00N 55°47' E 012°42'815.8
2017-Apr-22 06:30N 55°55' E 012°39'816.8
2017-Apr-22 06:00N 56°03' E 012°38'918.3
2017-Apr-22 05:30N 56°10' E 012°27'6717.2
2017-Apr-22 01:37N 57°14' E 011°52'217.6
2017-Apr-22 01:30N 57°16' E 011°50'917.6
2017-Apr-22 01:00N 57°23' E 011°41'917.4
2017-Apr-22 00:31N 57°29' E 011°30'917.1
2017-Apr-22 00:00N 57°35' E 011°19'917.4
2017-Apr-21 23:30N 57°44' E 011°13'817.3
2017-Apr-21 23:01N 57°51' E 011°07'816.7
2017-Apr-21 22:30N 57°59' E 011°01'816.2
2017-Apr-21 22:00N 58°07' E 010°56'816.3
2017-Apr-21 21:30N 58°15' E 010°51'816.1
2017-Apr-21 21:00N 58°22' E 010°45'816.3
2017-Apr-21 20:30N 58°30' E 010°40'815.9
2017-Apr-21 20:00N 58°37' E 010°36'816.1
2017-Apr-21 19:30N 58°45' E 010°35'816.7
2017-Apr-21 19:00N 58°54' E 010°35'817.0
2017-Apr-21 18:30N 59°02' E 010°37'815.1
2017-Apr-21 18:00N 59°10' E 010°38'714.9
2017-Apr-21 17:30N 59°17' E 010°36'715.0
2017-Apr-21 17:00N 59°25' E 010°34'815.3
2017-Apr-21 16:30N 59°32' E 010°36'815.2
2017-Apr-21 16:00N 59°40' E 010°37'714.4
2017-Apr-21 15:31N 59°47' E 010°34'713.6
2017-Apr-21 15:00N 59°53' E 010°39'3 6.0
2017-Apr-21 14:30N 59°54' E 010°45'0 0.0
2017-Apr-21 13:30N 59°54' E 010°45'0 0.0
2017-Apr-21 13:00N 59°54' E 010°45'0 0.0
2017-Apr-21 12:30N 59°54' E 010°45'0 0.0
2017-Apr-21 12:00N 59°54' E 010°45'0 0.0
2017-Apr-21 11:30N 59°54' E 010°45'0 0.0
2017-Apr-21 11:00N 59°54' E 010°45'0 0.0
2017-Apr-21 10:30N 59°54' E 010°45'0 0.0
2017-Apr-21 10:00N 59°54' E 010°45'0 0.0
2017-Apr-21 09:30N 59°54' E 010°45'0 0.0
2017-Apr-21 09:00N 59°54' E 010°45'0 0.0
2017-Apr-21 08:30N 59°54' E 010°45'0 0.0
2017-Apr-21 07:57N 59°54' E 010°45'0 0.4
2017-Apr-21 07:30N 59°54' E 010°45'511.0
2017-Apr-21 07:00N 59°50' E 010°36'714.1
2017-Apr-21 06:30N 59°43' E 010°35'612.9
2017-Apr-21 06:00N 59°37' E 010°38'815.3
2017-Apr-21 05:30N 59°30' E 010°35'816.0
2017-Apr-21 05:00N 59°22' E 010°35'816.6
2017-Apr-21 04:31N 59°14' E 010°38'816.3
2017-Apr-21 04:01N 59°05' E 010°38'816.1
2017-Apr-21 03:30N 58°57' E 010°36'816.6
2017-Apr-21 03:00N 58°49' E 010°35'816.5
2017-Apr-21 02:30N 58°41' E 010°36'816.5
2017-Apr-21 02:00N 58°32' E 010°37'817.1
2017-Apr-21 01:30N 58°24' E 010°42'816.9
2017-Apr-21 01:00N 58°16' E 010°47'816.7
2017-Apr-21 00:30N 58°08' E 010°51'816.1
2017-Apr-20 23:59N 58°01' E 010°59'815.9
2017-Apr-20 23:30N 57°54' E 011°04'815.5
2017-Apr-20 23:00N 57°47' E 011°09'816.0
2017-Apr-20 22:30N 57°39' E 011°14'816.0
2017-Apr-20 22:01N 57°32' E 011°22'816.4
2017-Apr-20 21:30N 57°25' E 011°29'817.0
2017-Apr-20 21:00N 57°17' E 011°35'1017.5
2017-Apr-20 20:27N 57°08' E 011°40'817.0
2017-Apr-20 20:00N 57°01' E 011°46'2716.4
2017-Apr-20 18:22N 56°37' E 012°09'2516.8
2017-Apr-20 16:51N 56°14' E 012°26'617.4
2017-Apr-20 16:30N 56°08' E 012°31'816.8
2017-Apr-20 16:01N 56°02' E 012°40'816.4
2017-Apr-20 15:30N 55°54' E 012°44'714.9
2017-Apr-20 15:00N 55°46' E 012°42'611.1
2017-Apr-20 14:31N 55°42' E 012°36'0 0.0
2017-Apr-20 13:30N 55°42' E 012°36'0 0.0
2017-Apr-20 13:00N 55°42' E 012°36'0 0.0
2017-Apr-20 12:30N 55°42' E 012°36'0 0.0
2017-Apr-20 12:00N 55°42' E 012°36'0 0.0
2017-Apr-20 11:30N 55°42' E 012°36'0 0.0
2017-Apr-20 11:00N 55°42' E 012°36'0 0.0
2017-Apr-20 10:30N 55°42' E 012°36'0 0.0
2017-Apr-20 10:00N 55°42' E 012°36'0 0.0
2017-Apr-20 09:30N 55°42' E 012°36'0 0.0
2017-Apr-20 09:00N 55°42' E 012°36'0 0.0
2017-Apr-20 08:30N 55°42' E 012°36'0 0.0
2017-Apr-20 08:00N 55°42' E 012°36'0 0.8
2017-Apr-20 07:31N 55°42' E 012°36'510.5
2017-Apr-20 07:01N 55°47' E 012°42'815.0
2017-Apr-20 06:31N 55°54' E 012°39'815.6
2017-Apr-20 06:01N 56°02' E 012°39'714.8
2017-Apr-20 05:31N 56°07' E 012°31'815.6
2017-Apr-20 05:00N 56°15' E 012°24'6217.2
2017-Apr-20 01:25N 57°14' E 011°53'717.5
2017-Apr-20 01:00N 57°20' E 011°45'917.3
2017-Apr-20 00:30N 57°27' E 011°37'917.2
2017-Apr-20 00:00N 57°34' E 011°28'817.0
2017-Apr-19 23:31N 57°42' E 011°20'917.3
2017-Apr-19 23:00N 57°49' E 011°12'917.5
2017-Apr-19 22:30N 57°57' E 011°04'917.1
2017-Apr-19 22:00N 58°05' E 010°57'917.4
2017-Apr-19 21:30N 58°12' E 010°50'917.4
2017-Apr-19 21:00N 58°21' E 010°46'816.6
2017-Apr-19 20:30N 58°29' E 010°40'816.3
2017-Apr-19 20:01N 58°36' E 010°36'816.4
2017-Apr-19 19:31N 58°45' E 010°34'816.8
2017-Apr-19 19:01N 58°53' E 010°35'917.1
2017-Apr-19 18:31N 59°01' E 010°37'816.9
2017-Apr-19 18:01N 59°10' E 010°38'816.9
2017-Apr-19 17:31N 59°18' E 010°36'816.6
2017-Apr-19 17:01N 59°26' E 010°33'816.3
2017-Apr-19 16:31N 59°34' E 010°38'714.6
2017-Apr-19 16:00N 59°41' E 010°36'4 8.7
2017-Apr-19 15:30N 59°46' E 010°33'713.9
2017-Apr-19 14:59N 59°52' E 010°38'4 7.8
2017-Apr-19 14:30N 59°54' E 010°45'0 0.0
2017-Apr-19 13:29N 59°54' E 010°45'0 0.0
2017-Apr-19 12:59N 59°54' E 010°45'0 0.0
2017-Apr-19 12:29N 59°54' E 010°45'0 0.0
2017-Apr-19 11:59N 59°54' E 010°45'0 0.0
2017-Apr-19 11:29N 59°54' E 010°45'0 0.0
2017-Apr-19 10:59N 59°54' E 010°45'0 0.0
2017-Apr-19 10:29N 59°54' E 010°45'0 0.0
2017-Apr-19 09:59N 59°54' E 010°45'0 0.0
2017-Apr-19 09:29N 59°54' E 010°45'0 0.0
2017-Apr-19 08:59N 59°54' E 010°45'0 0.0
2017-Apr-19 08:29N 59°54' E 010°45'0 0.0
2017-Apr-19 07:59N 59°54' E 010°45'0 0.5
2017-Apr-19 07:30N 59°54' E 010°44'613.3
2017-Apr-19 07:00N 59°49' E 010°35'815.0
2017-Apr-19 06:30N 59°42' E 010°36'713.8
2017-Apr-19 06:00N 59°35' E 010°38'815.9
2017-Apr-19 05:30N 59°27' E 010°34'816.0
2017-Apr-19 05:01N 59°20' E 010°36'816.1
2017-Apr-19 04:30N 59°12' E 010°39'816.0
2017-Apr-19 04:01N 59°04' E 010°41'816.3
2017-Apr-19 03:31N 58°56' E 010°44'816.0
2017-Apr-19 03:00N 58°48' E 010°45'816.1
2017-Apr-19 02:31N 58°40' E 010°47'816.4
2017-Apr-19 02:00N 58°32' E 010°52'816.2
2017-Apr-19 01:30N 58°24' E 010°57'816.1
2017-Apr-19 01:00N 58°17' E 011°03'916.9
2017-Apr-19 00:30N 58°09' E 011°08'917.6
2017-Apr-19 00:00N 58°01' E 011°14'917.4
2017-Apr-18 23:31N 57°53' E 011°20'917.2
2017-Apr-18 23:01N 57°44' E 011°25'817.0
2017-Apr-18 22:31N 57°36' E 011°31'917.1
2017-Apr-18 22:00N 57°29' E 011°37'917.3
2017-Apr-18 21:30N 57°21' E 011°45'916.9
2017-Apr-18 20:59N 57°13' E 011°51'6216.2
2017-Apr-18 17:09N 56°14' E 012°27'215.7
2017-Apr-18 17:00N 56°12' E 012°28'917.0
2017-Apr-18 16:31N 56°05' E 012°37'816.2
2017-Apr-18 16:01N 55°57' E 012°43'815.8
2017-Apr-18 15:31N 55°49' E 012°44'714.4
2017-Apr-18 15:01N 55°43' E 012°38'1 2.7
2017-Apr-18 14:31N 55°42' E 012°36'0 0.0
2017-Apr-18 13:29N 55°42' E 012°36'0 0.0
2017-Apr-18 12:59N 55°42' E 012°36'0 0.0
2017-Apr-18 12:29N 55°42' E 012°36'0 0.0
2017-Apr-18 11:59N 55°42' E 012°36'0 0.0
2017-Apr-18 11:29N 55°42' E 012°36'0 0.0
2017-Apr-18 10:59N 55°42' E 012°36'0 0.0
2017-Apr-18 10:29N 55°42' E 012°36'0 0.0
2017-Apr-18 09:59N 55°42' E 012°36'0 0.0
2017-Apr-18 09:29N 55°42' E 012°36'0 0.0
2017-Apr-18 08:59N 55°42' E 012°36'0 0.0
2017-Apr-18 08:29N 55°42' E 012°36'0 0.0
2017-Apr-18 07:59N 55°42' E 012°36'0 0.6
2017-Apr-18 07:30N 55°42' E 012°36'5 9.9
2017-Apr-18 07:01N 55°46' E 012°41'714.0
2017-Apr-18 06:31N 55°53' E 012°40'815.2
2017-Apr-18 06:01N 56°01' E 012°40'713.8
2017-Apr-18 05:30N 56°06' E 012°33'714.0
2017-Apr-18 05:01N 56°12' E 012°26'6316.8
2017-Apr-18 01:15N 57°13' E 011°52'416.0
2017-Apr-18 00:59N 57°16' E 011°48'715.4
2017-Apr-18 00:30N 57°23' E 011°41'815.7
2017-Apr-18 00:00N 57°29' E 011°33'815.9
2017-Apr-17 23:30N 57°36' E 011°25'816.4
2017-Apr-17 23:00N 57°43' E 011°16'816.6
2017-Apr-17 22:30N 57°50' E 011°08'816.7
2017-Apr-17 22:00N 57°57' E 011°01'916.8
2017-Apr-17 21:29N 58°05' E 010°55'816.6
2017-Apr-17 21:00N 58°13' E 010°49'916.3
2017-Apr-17 20:29N 58°21' E 010°43'816.6
2017-Apr-17 20:01N 58°28' E 010°38'816.9
2017-Apr-17 19:30N 58°36' E 010°35'816.3
2017-Apr-17 19:01N 58°44' E 010°33'816.1
2017-Apr-17 18:30N 58°52' E 010°34'817.0
2017-Apr-17 18:01N 59°01' E 010°36'917.4
2017-Apr-17 17:31N 59°09' E 010°38'917.3
2017-Apr-17 17:00N 59°18' E 010°36'917.2
2017-Apr-17 16:31N 59°26' E 010°33'917.3
2017-Apr-17 16:01N 59°35' E 010°38'714.7
2017-Apr-17 15:31N 59°42' E 010°35'816.2
2017-Apr-17 15:01N 59°50' E 010°35'6 6.2
2017-Apr-17 13:58N 59°54' E 010°45'0 0.0
2017-Apr-17 13:28N 59°54' E 010°45'0 0.0
2017-Apr-17 12:58N 59°54' E 010°45'0 0.0
2017-Apr-17 12:28N 59°54' E 010°45'0 0.0
2017-Apr-17 11:58N 59°54' E 010°45'0 0.0
2017-Apr-17 11:28N 59°54' E 010°45'0 0.0
2017-Apr-17 10:58N 59°54' E 010°45'0 0.0
2017-Apr-17 10:28N 59°54' E 010°45'0 0.0
2017-Apr-17 09:58N 59°54' E 010°45'0 0.0
2017-Apr-17 09:28N 59°54' E 010°45'0 0.0
2017-Apr-17 08:58N 59°54' E 010°45'0 0.0
2017-Apr-17 08:28N 59°54' E 010°45'0 0.0
2017-Apr-17 07:58N 59°54' E 010°45'0 1.0
2017-Apr-17 07:30N 59°54' E 010°44'713.7
2017-Apr-17 07:01N 59°49' E 010°35'714.6
2017-Apr-17 06:30N 59°42' E 010°36'713.8
2017-Apr-17 06:00N 59°35' E 010°38'815.2
2017-Apr-17 05:31N 59°28' E 010°34'815.6
2017-Apr-17 05:01N 59°20' E 010°36'815.3
2017-Apr-17 04:31N 59°12' E 010°38'714.8
2017-Apr-17 04:01N 59°05' E 010°40'815.3
2017-Apr-17 03:31N 58°57' E 010°42'815.3
2017-Apr-17 03:01N 58°50' E 010°45'815.7
2017-Apr-17 02:31N 58°42' E 010°45'816.4
2017-Apr-17 02:00N 58°34' E 010°50'816.9
2017-Apr-17 01:31N 58°26' E 010°56'917.0
2017-Apr-17 01:00N 58°18' E 011°02'916.7
2017-Apr-17 00:28N 58°10' E 011°07'816.7
2017-Apr-17 00:00N 58°03' E 011°12'816.8
2017-Apr-16 23:30N 57°55' E 011°18'816.8
2017-Apr-16 23:00N 57°47' E 011°23'917.3
2017-Apr-16 22:30N 57°39' E 011°29'917.1
2017-Apr-16 22:01N 57°31' E 011°34'917.0
2017-Apr-16 21:30N 57°23' E 011°42'1017.2
2017-Apr-16 20:57N 57°15' E 011°51'6416.4
2017-Apr-16 17:02N 56°14' E 012°26'016.1
2017-Apr-16 17:01N 56°13' E 012°26'917.5
2017-Apr-16 16:31N 56°06' E 012°35'917.5
2017-Apr-16 16:01N 55°58' E 012°42'816.7
2017-Apr-16 15:31N 55°50' E 012°44'815.5
2017-Apr-16 15:01N 55°43' E 012°38'2 1.5
2017-Apr-16 14:00N 55°42' E 012°36'0 0.0
2017-Apr-16 13:30N 55°42' E 012°36'0 0.0
2017-Apr-16 13:00N 55°42' E 012°36'0 0.0
2017-Apr-16 12:30N 55°42' E 012°36'0 0.0
2017-Apr-16 12:00N 55°42' E 012°36'0 0.0
2017-Apr-16 11:27N 55°42' E 012°36'0 0.0
2017-Apr-16 11:00N 55°42' E 012°36'0 0.0
2017-Apr-16 10:30N 55°42' E 012°36'0 0.0
2017-Apr-16 10:00N 55°42' E 012°36'0 0.0
2017-Apr-16 09:30N 55°42' E 012°36'0 0.0
2017-Apr-16 09:00N 55°42' E 012°36'0 0.0
2017-Apr-16 08:30N 55°42' E 012°36'0 0.0
2017-Apr-16 08:00N 55°42' E 012°36'0 0.6
2017-Apr-16 07:31N 55°42' E 012°36'611.3
2017-Apr-16 07:00N 55°47' E 012°42'714.2
2017-Apr-16 06:30N 55°54' E 012°39'815.3
2017-Apr-16 06:00N 56°02' E 012°40'714.1
2017-Apr-16 05:30N 56°07' E 012°31'713.7
2017-Apr-16 05:01N 56°11' E 012°22'6016.4
2017-Apr-16 01:20N 57°06' E 011°37'616.8
2017-Apr-16 01:00N 57°12' E 011°34'817.0
2017-Apr-16 00:31N 57°20' E 011°30'916.7
2017-Apr-16 00:00N 57°28' E 011°24'816.7
2017-Apr-15 23:30N 57°35' E 011°18'816.6
2017-Apr-15 23:00N 57°43' E 011°11'816.3
2017-Apr-15 22:29N 57°51' E 011°06'816.5
2017-Apr-15 22:00N 57°58' E 011°01'816.6
2017-Apr-15 21:30N 58°06' E 010°55'816.7
2017-Apr-15 21:00N 58°14' E 010°49'1216.4
2017-Apr-15 20:18N 58°24' E 010°41'516.7
2017-Apr-15 20:01N 58°29' E 010°38'816.2
2017-Apr-15 19:30N 58°37' E 010°36'816.1
2017-Apr-15 19:01N 58°45' E 010°35'815.5
2017-Apr-15 18:31N 58°53' E 010°35'816.0
2017-Apr-15 18:01N 59°01' E 010°37'816.8
2017-Apr-15 17:31N 59°09' E 010°39'816.7
2017-Apr-15 17:01N 59°17' E 010°36'816.8
2017-Apr-15 16:31N 59°26' E 010°33'816.6
2017-Apr-15 16:01N 59°34' E 010°37'714.8
2017-Apr-15 15:30N 59°41' E 010°36'815.2
2017-Apr-15 15:00N 59°49' E 010°35'714.4
2017-Apr-15 14:30N 59°54' E 010°44'0 0.3
2017-Apr-15 13:30N 59°54' E 010°45'0 0.0
2017-Apr-15 13:00N 59°54' E 010°45'0 0.0
2017-Apr-15 12:30N 59°54' E 010°45'0 0.0
2017-Apr-15 12:00N 59°54' E 010°45'0 0.0
2017-Apr-15 11:30N 59°54' E 010°45'0 0.0
2017-Apr-15 11:00N 59°54' E 010°45'0 0.0
2017-Apr-15 10:30N 59°54' E 010°45'0 0.0
2017-Apr-15 10:00N 59°54' E 010°45'0 0.0
2017-Apr-15 09:30N 59°54' E 010°45'0 0.0
2017-Apr-15 09:00N 59°54' E 010°45'0 0.0
2017-Apr-15 08:30N 59°54' E 010°45'0 0.0
2017-Apr-15 08:00N 59°54' E 010°45'0 0.5
2017-Apr-15 07:30N 59°54' E 010°44'713.4
2017-Apr-15 07:01N 59°49' E 010°35'714.4
2017-Apr-15 06:30N 59°42' E 010°36'714.2
2017-Apr-15 06:00N 59°35' E 010°38'815.2
2017-Apr-15 05:30N 59°28' E 010°34'815.5
2017-Apr-15 05:00N 59°20' E 010°36'815.4
2017-Apr-15 04:30N 59°13' E 010°39'815.1
2017-Apr-15 04:00N 59°05' E 010°40'714.9
2017-Apr-15 03:30N 58°58' E 010°42'815.3
2017-Apr-15 03:00N 58°50' E 010°45'815.2
2017-Apr-15 02:30N 58°43' E 010°47'815.7
2017-Apr-15 02:00N 58°35' E 010°51'816.0
2017-Apr-15 01:30N 58°27' E 010°56'816.4
2017-Apr-15 01:00N 58°20' E 011°01'816.6
2017-Apr-15 00:30N 58°12' E 011°07'917.3
2017-Apr-15 00:00N 58°04' E 011°12'917.3
2017-Apr-14 23:29N 57°55' E 011°18'817.0
2017-Apr-14 23:00N 57°48' E 011°23'917.1
2017-Apr-14 22:30N 57°40' E 011°29'917.4
2017-Apr-14 22:00N 57°31' E 011°34'917.2
2017-Apr-14 21:30N 57°24' E 011°41'917.2
2017-Apr-14 21:00N 57°16' E 011°48'6616.5
2017-Apr-14 17:01N 56°14' E 012°27'016.2
2017-Apr-14 17:00N 56°14' E 012°27'816.1
2017-Apr-14 16:30N 56°07' E 012°34'815.2
2017-Apr-14 16:00N 56°00' E 012°41'815.9
2017-Apr-14 15:30N 55°52' E 012°45'714.0
2017-Apr-14 15:01N 55°46' E 012°42'5 9.4
2017-Apr-14 14:30N 55°42' E 012°36'0 0.0
2017-Apr-14 13:30N 55°42' E 012°36'0 0.0
2017-Apr-14 13:00N 55°42' E 012°36'0 0.0
2017-Apr-14 12:30N 55°42' E 012°36'0 0.0
2017-Apr-14 12:00N 55°42' E 012°36'0 0.0
2017-Apr-14 11:30N 55°42' E 012°36'0 0.0
2017-Apr-14 11:00N 55°42' E 012°36'  
Track history (hours):
 
Tides and Currents Weather Stations Pressure Air Temp Water Temp Dewpoint Dewpoint Depression Visibility Wind Speed Wind Dir Waves Ship Positions

Crown Of Scandinavia

Last reported at 2017-Apr-24 10:59 UTC. Time now 2017-Apr-24 11:18 UTC.
Position N 55°42' E 012°36'.

Length 171 m; draft 6.3 m.

Type: Ship. MMSI: 219592000.

Date/timePositionNaut miles runAvg speedWind from/ knotsBaromVisibWave heightAir tempDewpointWater temp
2017-Apr-24 10:59N 55°42' E 012°36'0 0.0
2017-Apr-24 10:29N 55°42' E 012°36'0 0.0
2017-Apr-24 09:59N 55°42' E 012°36'0 0.0
2017-Apr-24 09:29N 55°42' E 012°36'0 0.0
2017-Apr-24 08:59N 55°42' E 012°36'0 0.0
2017-Apr-24 08:29N 55°42' E 012°36'0 0.0
2017-Apr-24 07:59N 55°42' E 012°36'0 0.8
2017-Apr-24 07:31N 55°42' E 012°36'713.9
2017-Apr-24 07:00N 55°49' E 012°42'815.1
2017-Apr-24 06:30N 55°56' E 012°39'815.2
2017-Apr-24 06:00N 56°03' E 012°38'714.8
2017-Apr-24 05:30N 56°09' E 012°29'815.0
2017-Apr-24 05:00N 56°16' E 012°25'5915.3
2017-Apr-24 01:07N 57°13' E 011°53'216.4
2017-Apr-24 00:58N 57°15' E 011°51'816.2
2017-Apr-24 00:30N 57°21' E 011°43'816.4
2017-Apr-24 00:00N 57°29' E 011°36'816.7
2017-Apr-23 23:30N 57°36' E 011°30'816.4
2017-Apr-23 23:00N 57°44' E 011°26'916.5
2017-Apr-23 22:26N 57°53' E 011°19'716.4
2017-Apr-23 21:59N 57°60' E 011°14'815.9
2017-Apr-23 21:30N 58°07' E 011°09'815.8
2017-Apr-23 21:00N 58°14' E 011°04'816.1
2017-Apr-23 20:30N 58°22' E 010°59'816.4
2017-Apr-23 20:00N 58°30' E 010°54'816.3
2017-Apr-23 19:30N 58°38' E 010°50'816.4
2017-Apr-23 19:00N 58°46' E 010°48'816.7
2017-Apr-23 18:30N 58°54' E 010°44'816.9
2017-Apr-23 18:00N 59°02' E 010°41'816.7
2017-Apr-23 17:30N 59°10' E 010°38'816.6
2017-Apr-23 17:00N 59°19' E 010°35'816.6
2017-Apr-23 16:30N 59°27' E 010°33'816.0
2017-Apr-23 16:00N 59°34' E 010°38'714.0
2017-Apr-23 15:30N 59°41' E 010°36'815.8
2017-Apr-23 15:00N 59°49' E 010°34'7 7.1
2017-Apr-23 13:59N 59°54' E 010°45'0 0.0
2017-Apr-23 13:29N 59°54' E 010°45'0 0.0
2017-Apr-23 12:59N 59°54' E 010°45'0 0.0
2017-Apr-23 12:29N 59°54' E 010°45'0 0.0
2017-Apr-23 11:59N 59°54' E 010°45'0 0.0
2017-Apr-23 11:29N 59°54' E 010°45'0 0.0
2017-Apr-23 10:59N 59°54' E 010°45'0 0.0
2017-Apr-23 10:29N 59°54' E 010°45'0 0.0
2017-Apr-23 09:59N 59°54' E 010°45'0 0.0
2017-Apr-23 09:29N 59°54' E 010°45'0 0.0
2017-Apr-23 08:59N 59°54' E 010°45'0 0.0
2017-Apr-23 08:29N 59°54' E 010°45'0 0.0
2017-Apr-23 07:59N 59°54' E 010°45'0 0.3
2017-Apr-23 07:30N 59°54' E 010°45'611.7
2017-Apr-23 07:00N 59°50' E 010°36'714.7
2017-Apr-23 06:30N 59°43' E 010°35'713.9
2017-Apr-23 06:01N 59°36' E 010°38'816.2
2017-Apr-23 05:31N 59°28' E 010°35'815.7
2017-Apr-23 05:01N 59°20' E 010°36'815.5
2017-Apr-23 04:31N 59°13' E 010°38'815.7
2017-Apr-23 04:01N 59°05' E 010°39'816.2
2017-Apr-23 03:31N 58°57' E 010°38'816.5
2017-Apr-23 03:01N 58°49' E 010°39'816.9
2017-Apr-23 02:31N 58°40' E 010°40'917.5
2017-Apr-23 02:01N 58°31' E 010°41'917.7
2017-Apr-23 01:30N 58°23' E 010°43'917.7
2017-Apr-23 01:00N 58°14' E 010°49'917.4
2017-Apr-23 00:31N 58°06' E 010°55'917.4
2017-Apr-23 00:00N 57°58' E 011°00'816.9
2017-Apr-22 23:30N 57°50' E 011°06'816.8
2017-Apr-22 23:00N 57°42' E 011°11'816.6
2017-Apr-22 22:30N 57°35' E 011°19'816.8
2017-Apr-22 22:00N 57°28' E 011°27'916.9
2017-Apr-22 21:30N 57°20' E 011°34'817.1
2017-Apr-22 21:01N 57°12' E 011°38'1017.5
2017-Apr-22 20:25N 57°02' E 011°44'1117.8
2017-Apr-22 19:50N 56°52' E 011°49'3916.5
2017-Apr-22 17:27N 56°16' E 012°18'715.8
2017-Apr-22 17:01N 56°11' E 012°26'815.6
2017-Apr-22 16:31N 56°05' E 012°36'713.8
2017-Apr-22 16:01N 55°59' E 012°42'714.7
2017-Apr-22 15:31N 55°52' E 012°45'713.9
2017-Apr-22 15:00N 55°45' E 012°41'4 8.4
2017-Apr-22 14:30N 55°42' E 012°36'0 0.0
2017-Apr-22 13:30N 55°42' E 012°36'0 0.0
2017-Apr-22 13:00N 55°42' E 012°36'0 0.0
2017-Apr-22 12:30N 55°42' E 012°36'0 0.0
2017-Apr-22 12:00N 55°42' E 012°36'0 0.0
2017-Apr-22 11:30N 55°42' E 012°36'0 0.0
2017-Apr-22 11:00N 55°42' E 012°36'0 0.0
2017-Apr-22 10:30N 55°42' E 012°36'0 0.0
2017-Apr-22 10:00N 55°42' E 012°36'0 0.0
2017-Apr-22 09:30N 55°42' E 012°36'0 0.0
2017-Apr-22 09:00N 55°42' E 012°36'0 0.0
2017-Apr-22 08:30N 55°42' E 012°36'0 0.0
2017-Apr-22 08:00N 55°42' E 012°36'0 0.7
2017-Apr-22 07:31N 55°42' E 012°36'611.5
2017-Apr-22 07:00N 55°47' E 012°42'815.8
2017-Apr-22 06:30N 55°55' E 012°39'816.8
2017-Apr-22 06:00N 56°03' E 012°38'918.3
2017-Apr-22 05:30N 56°10' E 012°27'6717.2
2017-Apr-22 01:37N 57°14' E 011°52'217.6
2017-Apr-22 01:30N 57°16' E 011°50'917.6
2017-Apr-22 01:00N 57°23' E 011°41'917.4
2017-Apr-22 00:31N 57°29' E 011°30'917.1
2017-Apr-22 00:00N 57°35' E 011°19'917.4
2017-Apr-21 23:30N 57°44' E 011°13'817.3
2017-Apr-21 23:01N 57°51' E 011°07'816.7
2017-Apr-21 22:30N 57°59' E 011°01'816.2
2017-Apr-21 22:00N 58°07' E 010°56'816.3
2017-Apr-21 21:30N 58°15' E 010°51'816.1
2017-Apr-21 21:00N 58°22' E 010°45'816.3
2017-Apr-21 20:30N 58°30' E 010°40'815.9
2017-Apr-21 20:00N 58°37' E 010°36'816.1
2017-Apr-21 19:30N 58°45' E 010°35'816.7
2017-Apr-21 19:00N 58°54' E 010°35'817.0
2017-Apr-21 18:30N 59°02' E 010°37'815.1
2017-Apr-21 18:00N 59°10' E 010°38'714.9
2017-Apr-21 17:30N 59°17' E 010°36'715.0
2017-Apr-21 17:00N 59°25' E 010°34'815.3
2017-Apr-21 16:30N 59°32' E 010°36'815.2
2017-Apr-21 16:00N 59°40' E 010°37'714.4
2017-Apr-21 15:31N 59°47' E 010°34'713.6
2017-Apr-21 15:00N 59°53' E 010°39'3 6.0
2017-Apr-21 14:30N 59°54' E 010°45'0 0.0
2017-Apr-21 13:30N 59°54' E 010°45'0 0.0
2017-Apr-21 13:00N 59°54' E 010°45'0 0.0
2017-Apr-21 12:30N 59°54' E 010°45'0 0.0
2017-Apr-21 12:00N 59°54' E 010°45'0 0.0
2017-Apr-21 11:30N 59°54' E 010°45'0 0.0
2017-Apr-21 11:00N 59°54' E 010°45'0 0.0
2017-Apr-21 10:30N 59°54' E 010°45'0 0.0
2017-Apr-21 10:00N 59°54' E 010°45'0 0.0
2017-Apr-21 09:30N 59°54' E 010°45'0 0.0
2017-Apr-21 09:00N 59°54' E 010°45'0 0.0
2017-Apr-21 08:30N 59°54' E 010°45'0 0.0
2017-Apr-21 07:57N 59°54' E 010°45'0 0.4
2017-Apr-21 07:30N 59°54' E 010°45'511.0
2017-Apr-21 07:00N 59°50' E 010°36'714.1
2017-Apr-21 06:30N 59°43' E 010°35'612.9
2017-Apr-21 06:00N 59°37' E 010°38'815.3
2017-Apr-21 05:30N 59°30' E 010°35'816.0
2017-Apr-21 05:00N 59°22' E 010°35'816.6
2017-Apr-21 04:31N 59°14' E 010°38'816.3
2017-Apr-21 04:01N 59°05' E 010°38'816.1
2017-Apr-21 03:30N 58°57' E 010°36'816.6
2017-Apr-21 03:00N 58°49' E 010°35'816.5
2017-Apr-21 02:30N 58°41' E 010°36'816.5
2017-Apr-21 02:00N 58°32' E 010°37'817.1
2017-Apr-21 01:30N 58°24' E 010°42'816.9
2017-Apr-21 01:00N 58°16' E 010°47'816.7
2017-Apr-21 00:30N 58°08' E 010°51'816.1
2017-Apr-20 23:59N 58°01' E 010°59'815.9
2017-Apr-20 23:30N 57°54' E 011°04'815.5
2017-Apr-20 23:00N 57°47' E 011°09'816.0
2017-Apr-20 22:30N 57°39' E 011°14'816.0
2017-Apr-20 22:01N 57°32' E 011°22'816.4
2017-Apr-20 21:30N 57°25' E 011°29'817.0
2017-Apr-20 21:00N 57°17' E 011°35'1017.5
2017-Apr-20 20:27N 57°08' E 011°40'817.0
2017-Apr-20 20:00N 57°01' E 011°46'2716.4
2017-Apr-20 18:22N 56°37' E 012°09'2516.8
2017-Apr-20 16:51N 56°14' E 012°26'617.4
2017-Apr-20 16:30N 56°08' E 012°31'816.8
2017-Apr-20 16:01N 56°02' E 012°40'816.4
2017-Apr-20 15:30N 55°54' E 012°44'714.9
2017-Apr-20 15:00N 55°46' E 012°42'611.1
2017-Apr-20 14:31N 55°42' E 012°36'0 0.0
2017-Apr-20 13:30N 55°42' E 012°36'0 0.0
2017-Apr-20 13:00N 55°42' E 012°36'0 0.0
2017-Apr-20 12:30N 55°42' E 012°36'0 0.0
2017-Apr-20 12:00N 55°42' E 012°36'0 0.0
2017-Apr-20 11:30N 55°42' E 012°36'0 0.0
2017-Apr-20 11:00N 55°42' E 012°36'0 0.0
2017-Apr-20 10:30N 55°42' E 012°36'0 0.0
2017-Apr-20 10:00N 55°42' E 012°36'0 0.0
2017-Apr-20 09:30N 55°42' E 012°36'0 0.0
2017-Apr-20 09:00N 55°42' E 012°36'0 0.0
2017-Apr-20 08:30N 55°42' E 012°36'0 0.0
2017-Apr-20 08:00N 55°42' E 012°36'0 0.8
2017-Apr-20 07:31N 55°42' E 012°36'510.5
2017-Apr-20 07:01N 55°47' E 012°42'815.0
2017-Apr-20 06:31N 55°54' E 012°39'815.6
2017-Apr-20 06:01N 56°02' E 012°39'714.8
2017-Apr-20 05:31N 56°07' E 012°31'815.6
2017-Apr-20 05:00N 56°15' E 012°24'6217.2
2017-Apr-20 01:25N 57°14' E 011°53'717.5
2017-Apr-20 01:00N 57°20' E 011°45'917.3
2017-Apr-20 00:30N 57°27' E 011°37'917.2
2017-Apr-20 00:00N 57°34' E 011°28'817.0
2017-Apr-19 23:31N 57°42' E 011°20'917.3
2017-Apr-19 23:00N 57°49' E 011°12'917.5
2017-Apr-19 22:30N 57°57' E 011°04'917.1
2017-Apr-19 22:00N 58°05' E 010°57'917.4
2017-Apr-19 21:30N 58°12' E 010°50'917.4
2017-Apr-19 21:00N 58°21' E 010°46'816.6
2017-Apr-19 20:30N 58°29' E 010°40'816.3
2017-Apr-19 20:01N 58°36' E 010°36'816.4
2017-Apr-19 19:31N 58°45' E 010°34'816.8
2017-Apr-19 19:01N 58°53' E 010°35'917.1
2017-Apr-19 18:31N 59°01' E 010°37'816.9
2017-Apr-19 18:01N 59°10' E 010°38'816.9
2017-Apr-19 17:31N 59°18' E 010°36'816.6
2017-Apr-19 17:01N 59°26' E 010°33'816.3
2017-Apr-19 16:31N 59°34' E 010°38'714.6
2017-Apr-19 16:00N 59°41' E 010°36'4 8.7
2017-Apr-19 15:30N 59°46' E 010°33'713.9
2017-Apr-19 14:59N 59°52' E 010°38'4 7.8
2017-Apr-19 14:30N 59°54' E 010°45'0 0.0
2017-Apr-19 13:29N 59°54' E 010°45'0 0.0
2017-Apr-19 12:59N 59°54' E 010°45'0 0.0
2017-Apr-19 12:29N 59°54' E 010°45'0 0.0
2017-Apr-19 11:59N 59°54' E 010°45'0 0.0
2017-Apr-19 11:29N 59°54' E 010°45'0 0.0
2017-Apr-19 10:59N 59°54' E 010°45'0 0.0
2017-Apr-19 10:29N 59°54' E 010°45'0 0.0
2017-Apr-19 09:59N 59°54' E 010°45'0 0.0
2017-Apr-19 09:29N 59°54' E 010°45'0 0.0
2017-Apr-19 08:59N 59°54' E 010°45'0 0.0
2017-Apr-19 08:29N 59°54' E 010°45'0 0.0
2017-Apr-19 07:59N 59°54' E 010°45'0 0.5
2017-Apr-19 07:30N 59°54' E 010°44'613.3
2017-Apr-19 07:00N 59°49' E 010°35'815.0
2017-Apr-19 06:30N 59°42' E 010°36'713.8
2017-Apr-19 06:00N 59°35' E 010°38'815.9
2017-Apr-19 05:30N 59°27' E 010°34'816.0
2017-Apr-19 05:01N 59°20' E 010°36'816.1
2017-Apr-19 04:30N 59°12' E 010°39'816.0
2017-Apr-19 04:01N 59°04' E 010°41'816.3
2017-Apr-19 03:31N 58°56' E 010°44'816.0
2017-Apr-19 03:00N 58°48' E 010°45'816.1
2017-Apr-19 02:31N 58°40' E 010°47'816.4
2017-Apr-19 02:00N 58°32' E 010°52'816.2
2017-Apr-19 01:30N 58°24' E 010°57'816.1
2017-Apr-19 01:00N 58°17' E 011°03'916.9
2017-Apr-19 00:30N 58°09' E 011°08'917.6
2017-Apr-19 00:00N 58°01' E 011°14'917.4
2017-Apr-18 23:31N 57°53' E 011°20'917.2
2017-Apr-18 23:01N 57°44' E 011°25'817.0
2017-Apr-18 22:31N 57°36' E 011°31'917.1
2017-Apr-18 22:00N 57°29' E 011°37'917.3
2017-Apr-18 21:30N 57°21' E 011°45'916.9
2017-Apr-18 20:59N 57°13' E 011°51'6216.2
2017-Apr-18 17:09N 56°14' E 012°27'215.7
2017-Apr-18 17:00N 56°12' E 012°28'917.0
2017-Apr-18 16:31N 56°05' E 012°37'816.2
2017-Apr-18 16:01N 55°57' E 012°43'815.8
2017-Apr-18 15:31N 55°49' E 012°44'714.4
2017-Apr-18 15:01N 55°43' E 012°38'1 2.7
2017-Apr-18 14:31N 55°42' E 012°36'0 0.0
2017-Apr-18 13:29N 55°42' E 012°36'0 0.0
2017-Apr-18 12:59N 55°42' E 012°36'0 0.0
2017-Apr-18 12:29N 55°42' E 012°36'0 0.0
2017-Apr-18 11:59N 55°42' E 012°36'0 0.0
2017-Apr-18 11:29N 55°42' E 012°36'0 0.0
2017-Apr-18 10:59N 55°42' E 012°36'0 0.0
2017-Apr-18 10:29N 55°42' E 012°36'0 0.0
2017-Apr-18 09:59N 55°42' E 012°36'0 0.0
2017-Apr-18 09:29N 55°42' E 012°36'0 0.0
2017-Apr-18 08:59N 55°42' E 012°36'0 0.0
2017-Apr-18 08:29N 55°42' E 012°36'0 0.0
2017-Apr-18 07:59N 55°42' E 012°36'0 0.6
2017-Apr-18 07:30N 55°42' E 012°36'5 9.9
2017-Apr-18 07:01N 55°46' E 012°41'714.0
2017-Apr-18 06:31N 55°53' E 012°40'815.2
2017-Apr-18 06:01N 56°01' E 012°40'713.8
2017-Apr-18 05:30N 56°06' E 012°33'714.0
2017-Apr-18 05:01N 56°12' E 012°26'6316.8
2017-Apr-18 01:15N 57°13' E 011°52'416.0
2017-Apr-18 00:59N 57°16' E 011°48'715.4
2017-Apr-18 00:30N 57°23' E 011°41'815.7
2017-Apr-18 00:00N 57°29' E 011°33'815.9
2017-Apr-17 23:30N 57°36' E 011°25'816.4
2017-Apr-17 23:00N 57°43' E 011°16'816.6
2017-Apr-17 22:30N 57°50' E 011°08'816.7
2017-Apr-17 22:00N 57°57' E 011°01'916.8
2017-Apr-17 21:29N 58°05' E 010°55'816.6
2017-Apr-17 21:00N 58°13' E 010°49'916.3
2017-Apr-17 20:29N 58°21' E 010°43'816.6
2017-Apr-17 20:01N 58°28' E 010°38'816.9
2017-Apr-17 19:30N 58°36' E 010°35'816.3
2017-Apr-17 19:01N 58°44' E 010°33'816.1
2017-Apr-17 18:30N 58°52' E 010°34'817.0
2017-Apr-17 18:01N 59°01' E 010°36'917.4
2017-Apr-17 17:31N 59°09' E 010°38'917.3
2017-Apr-17 17:00N 59°18' E 010°36'917.2
2017-Apr-17 16:31N 59°26' E 010°33'917.3
2017-Apr-17 16:01N 59°35' E 010°38'714.7
2017-Apr-17 15:31N 59°42' E 010°35'816.2
2017-Apr-17 15:01N 59°50' E 010°35'6 6.2
2017-Apr-17 13:58N 59°54' E 010°45'0 0.0
2017-Apr-17 13:28N 59°54' E 010°45'0 0.0
2017-Apr-17 12:58N 59°54' E 010°45'0 0.0
2017-Apr-17 12:28N 59°54' E 010°45'0 0.0
2017-Apr-17 11:58N 59°54' E 010°45'0 0.0
2017-Apr-17 11:28N 59°54' E 010°45'0 0.0
2017-Apr-17 10:58N 59°54' E 010°45'0 0.0
2017-Apr-17 10:28N 59°54' E 010°45'0 0.0
2017-Apr-17 09:58N 59°54' E 010°45'0 0.0
2017-Apr-17 09:28N 59°54' E 010°45'0 0.0
2017-Apr-17 08:58N 59°54' E 010°45'0 0.0
2017-Apr-17 08:28N 59°54' E 010°45'0 0.0
2017-Apr-17 07:58N 59°54' E 010°45'0 1.0
2017-Apr-17 07:30N 59°54' E 010°44'713.7
2017-Apr-17 07:01N 59°49' E 010°35'714.6
2017-Apr-17 06:30N 59°42' E 010°36'713.8
2017-Apr-17 06:00N 59°35' E 010°38'815.2
2017-Apr-17 05:31N 59°28' E 010°34'815.6
2017-Apr-17 05:01N 59°20' E 010°36'815.3
2017-Apr-17 04:31N 59°12' E 010°38'714.8
2017-Apr-17 04:01N 59°05' E 010°40'815.3
2017-Apr-17 03:31N 58°57' E 010°42'815.3
2017-Apr-17 03:01N 58°50' E 010°45'815.7
2017-Apr-17 02:31N 58°42' E 010°45'816.4
2017-Apr-17 02:00N 58°34' E 010°50'816.9
2017-Apr-17 01:31N 58°26' E 010°56'917.0
2017-Apr-17 01:00N 58°18' E 011°02'916.7
2017-Apr-17 00:28N 58°10' E 011°07'816.7
2017-Apr-17 00:00N 58°03' E 011°12'816.8
2017-Apr-16 23:30N 57°55' E 011°18'816.8
2017-Apr-16 23:00N 57°47' E 011°23'917.3
2017-Apr-16 22:30N 57°39' E 011°29'917.1
2017-Apr-16 22:01N 57°31' E 011°34'917.0
2017-Apr-16 21:30N 57°23' E 011°42'1017.2
2017-Apr-16 20:57N 57°15' E 011°51'6416.4
2017-Apr-16 17:02N 56°14' E 012°26'016.1
2017-Apr-16 17:01N 56°13' E 012°26'917.5
2017-Apr-16 16:31N 56°06' E 012°35'917.5
2017-Apr-16 16:01N 55°58' E 012°42'816.7
2017-Apr-16 15:31N 55°50' E 012°44'815.5
2017-Apr-16 15:01N 55°43' E 012°38'2 1.5
2017-Apr-16 14:00N 55°42' E 012°36'0 0.0
2017-Apr-16 13:30N 55°42' E 012°36'0 0.0
2017-Apr-16 13:00N 55°42' E 012°36'0 0.0
2017-Apr-16 12:30N 55°42' E 012°36'0 0.0
2017-Apr-16 12:00N 55°42' E 012°36'0 0.0
2017-Apr-16 11:27N 55°42' E 012°36'0 0.0
2017-Apr-16 11:00N 55°42' E 012°36'0 0.0
2017-Apr-16 10:30N 55°42' E 012°36'0 0.0
2017-Apr-16 10:00N 55°42' E 012°36'0 0.0
2017-Apr-16 09:30N 55°42' E 012°36'0 0.0
2017-Apr-16 09:00N 55°42' E 012°36'0 0.0
2017-Apr-16 08:30N 55°42' E 012°36'0 0.0
2017-Apr-16 08:00N 55°42' E 012°36'0 0.6
2017-Apr-16 07:31N 55°42' E 012°36'611.3
2017-Apr-16 07:00N 55°47' E 012°42'714.2
2017-Apr-16 06:30N 55°54' E 012°39'815.3
2017-Apr-16 06:00N 56°02' E 012°40'714.1
2017-Apr-16 05:30N 56°07' E 012°31'713.7
2017-Apr-16 05:01N 56°11' E 012°22'6016.4
2017-Apr-16 01:20N 57°06' E 011°37'616.8
2017-Apr-16 01:00N 57°12' E 011°34'817.0
2017-Apr-16 00:31N 57°20' E 011°30'916.7
2017-Apr-16 00:00N 57°28' E 011°24'816.7
2017-Apr-15 23:30N 57°35' E 011°18'816.6
2017-Apr-15 23:00N 57°43' E 011°11'816.3
2017-Apr-15 22:29N 57°51' E 011°06'816.5
2017-Apr-15 22:00N 57°58' E 011°01'816.6
2017-Apr-15 21:30N 58°06' E 010°55'816.7
2017-Apr-15 21:00N 58°14' E 010°49'1216.4
2017-Apr-15 20:18N 58°24' E 010°41'516.7
2017-Apr-15 20:01N 58°29' E 010°38'816.2
2017-Apr-15 19:30N 58°37' E 010°36'816.1
2017-Apr-15 19:01N 58°45' E 010°35'815.5
2017-Apr-15 18:31N 58°53' E 010°35'816.0
2017-Apr-15 18:01N 59°01' E 010°37'816.8
2017-Apr-15 17:31N 59°09' E 010°39'816.7
2017-Apr-15 17:01N 59°17' E 010°36'816.8
2017-Apr-15 16:31N 59°26' E 010°33'816.6
2017-Apr-15 16:01N 59°34' E 010°37'714.8
2017-Apr-15 15:30N 59°41' E 010°36'815.2
2017-Apr-15 15:00N 59°49' E 010°35'714.4
2017-Apr-15 14:30N 59°54' E 010°44'0 0.3
2017-Apr-15 13:30N 59°54' E 010°45'0 0.0
2017-Apr-15 13:00N 59°54' E 010°45'0 0.0
2017-Apr-15 12:30N 59°54' E 010°45'0 0.0
2017-Apr-15 12:00N 59°54' E 010°45'0 0.0
2017-Apr-15 11:30N 59°54' E 010°45'0 0.0
2017-Apr-15 11:00N 59°54' E 010°45'0 0.0
2017-Apr-15 10:30N 59°54' E 010°45'0 0.0
2017-Apr-15 10:00N 59°54' E 010°45'0 0.0
2017-Apr-15 09:30N 59°54' E 010°45'0 0.0
2017-Apr-15 09:00N 59°54' E 010°45'0 0.0
2017-Apr-15 08:30N 59°54' E 010°45'0 0.0
2017-Apr-15 08:00N 59°54' E 010°45'0 0.5
2017-Apr-15 07:30N 59°54' E 010°44'713.4
2017-Apr-15 07:01N 59°49' E 010°35'714.4
2017-Apr-15 06:30N 59°42' E 010°36'714.2
2017-Apr-15 06:00N 59°35' E 010°38'815.2
2017-Apr-15 05:30N 59°28' E 010°34'815.5
2017-Apr-15 05:00N 59°20' E 010°36'815.4
2017-Apr-15 04:30N 59°13' E 010°39'815.1
2017-Apr-15 04:00N 59°05' E 010°40'714.9
2017-Apr-15 03:30N 58°58' E 010°42'815.3
2017-Apr-15 03:00N 58°50' E 010°45'815.2
2017-Apr-15 02:30N 58°43' E 010°47'815.7
2017-Apr-15 02:00N 58°35' E 010°51'816.0
2017-Apr-15 01:30N 58°27' E 010°56'816.4
2017-Apr-15 01:00N 58°20' E 011°01'816.6
2017-Apr-15 00:30N 58°12' E 011°07'917.3
2017-Apr-15 00:00N 58°04' E 011°12'917.3
2017-Apr-14 23:29N 57°55' E 011°18'817.0
2017-Apr-14 23:00N 57°48' E 011°23'917.1
2017-Apr-14 22:30N 57°40' E 011°29'917.4
2017-Apr-14 22:00N 57°31' E 011°34'917.2
2017-Apr-14 21:30N 57°24' E 011°41'917.2
2017-Apr-14 21:00N 57°16' E 011°48'6616.5
2017-Apr-14 17:01N 56°14' E 012°27'016.2
2017-Apr-14 17:00N 56°14' E 012°27'816.1
2017-Apr-14 16:30N 56°07' E 012°34'815.2
2017-Apr-14 16:00N 56°00' E 012°41'815.9
2017-Apr-14 15:30N 55°52' E 012°45'714.0
2017-Apr-14 15:01N 55°46' E 012°42'5 9.4
2017-Apr-14 14:30N 55°42' E 012°36'0 0.0
2017-Apr-14 13:30N 55°42' E 012°36'0 0.0
2017-Apr-14 13:00N 55°42' E 012°36'0 0.0
2017-Apr-14 12:30N 55°42' E 012°36'0 0.0
2017-Apr-14 12:00N 55°42' E 012°36'0 0.0
2017-Apr-14 11:30N 55°42' E 012°36'0 0.0
2017-Apr-14 11:00N 55°42' E 012°36'  

Dump ship's entire track history